createdAt,value
2019-05-12T00:01:38.799Z,99.90
2019-05-12T00:07:43.167Z,99.90
2019-05-12T00:13:47.901Z,99.90
2019-05-12T00:19:52.544Z,99.90
2019-05-12T00:25:58.727Z,99.90
2019-05-12T00:32:03.631Z,99.90
2019-05-12T00:38:09.327Z,99.90
2019-05-12T00:44:14.155Z,99.90
2019-05-12T00:50:18.806Z,99.90
2019-05-12T00:56:23.316Z,99.90
2019-05-12T01:02:28.678Z,99.90
2019-05-12T01:08:33.403Z,99.90
2019-05-12T01:14:38.399Z,99.90
2019-05-12T01:20:43.136Z,99.90
2019-05-12T01:26:47.740Z,99.90
2019-05-12T01:32:52.382Z,99.90
2019-05-12T01:38:59.155Z,99.90
2019-05-12T01:45:03.406Z,99.90
2019-05-12T01:51:08.358Z,99.90
2019-05-12T01:57:13.265Z,99.90
2019-05-12T02:03:17.998Z,99.90
2019-05-12T02:09:24.151Z,99.90
2019-05-12T02:15:28.703Z,99.90
2019-05-12T02:21:33.242Z,99.90
2019-05-12T02:27:38.365Z,99.90
2019-05-12T02:33:44.620Z,99.90
2019-05-12T02:39:49.339Z,99.90
2019-05-12T02:45:54.780Z,99.90
2019-05-12T02:51:59.718Z,99.90
2019-05-12T02:58:05.954Z,99.90
2019-05-12T03:04:14.524Z,99.90
2019-05-12T03:10:20.694Z,99.90
2019-05-12T03:16:25.847Z,99.90
2019-05-12T03:22:30.452Z,99.90
2019-05-12T03:28:35.787Z,99.90
2019-05-12T03:34:40.636Z,99.90
2019-05-12T03:40:45.483Z,99.90
2019-05-12T03:46:50.193Z,99.90
2019-05-12T03:52:56.620Z,99.90
2019-05-12T03:59:04.462Z,99.90
2019-05-12T04:05:08.180Z,99.90
2019-05-12T04:11:14.596Z,99.90
2019-05-12T04:17:19.200Z,99.90
2019-05-12T04:23:24.766Z,99.90
2019-05-12T04:29:29.666Z,99.90
2019-05-12T04:35:35.437Z,99.90
2019-05-12T04:41:40.499Z,99.90
2019-05-12T04:47:45.266Z,99.90
2019-05-12T04:53:49.895Z,99.90
2019-05-12T04:59:54.528Z,99.90
2019-05-12T05:05:59.064Z,99.90
2019-05-12T05:12:04.584Z,99.90
2019-05-12T05:18:09.531Z,99.90
2019-05-12T05:24:14.374Z,99.90
2019-05-12T05:30:19.203Z,99.90
2019-05-12T05:36:24.992Z,99.90
2019-05-12T05:42:32.775Z,99.90
2019-05-12T05:48:36.084Z,99.90
2019-05-12T05:54:40.640Z,99.90
2019-05-12T06:00:45.215Z,99.90
2019-05-12T06:06:53.720Z,99.90
2019-05-12T06:12:56.048Z,99.90
2019-05-12T06:19:00.622Z,99.90
2019-05-12T06:25:06.664Z,99.90
2019-05-12T06:31:13.576Z,99.90
2019-05-12T06:37:17.577Z,99.90
2019-05-12T06:43:24.262Z,99.90
2019-05-12T06:49:28.395Z,99.90
2019-05-12T06:55:36.837Z,99.90
2019-05-12T07:01:39.310Z,99.90
2019-05-12T07:07:45.997Z,99.90
2019-05-12T07:14:01.296Z,99.90
2019-05-12T07:19:58.224Z,99.90
2019-05-12T07:26:06.736Z,99.90
2019-05-12T07:32:16.522Z,99.90
2019-05-12T07:38:20.978Z,99.90
2019-05-12T07:44:25.270Z,99.90
2019-05-12T07:50:30.007Z,99.90
2019-05-12T07:56:35.771Z,99.90
2019-05-12T08:02:40.682Z,99.90
2019-05-12T08:08:50.967Z,99.90
2019-05-12T08:14:51.577Z,99.90
2019-05-12T08:20:56.239Z,99.90
2019-05-12T08:27:05.703Z,99.90
2019-05-12T08:33:09.821Z,99.90
2019-05-12T08:39:21.381Z,99.90
2019-05-12T08:45:27.369Z,99.90
2019-05-12T08:51:26.584Z,99.90
2019-05-12T08:57:34.839Z,99.90
2019-05-12T09:03:37.514Z,99.90
2019-05-12T09:09:43.951Z,99.90
2019-05-12T09:15:48.462Z,99.90
2019-05-12T09:21:54.260Z,99.90
2019-05-12T09:27:58.941Z,99.90
2019-05-12T09:34:11.626Z,99.90
2019-05-12T09:40:10.242Z,99.90
2019-05-12T09:46:14.793Z,99.90
2019-05-12T09:52:22.361Z,99.90
2019-05-12T09:58:27.830Z,99.90
2019-05-12T10:04:33.088Z,99.90
2019-05-12T10:10:40.183Z,99.90
2019-05-12T10:16:45.594Z,99.90
2019-05-12T10:22:50.485Z,99.90
2019-05-12T10:28:58.420Z,99.90
2019-05-12T10:35:01.422Z,99.90
2019-05-12T10:41:06.128Z,99.90
2019-05-12T10:47:10.750Z,99.90
2019-05-12T10:53:17.774Z,99.90
2019-05-12T10:59:32.232Z,99.90
2019-05-12T11:05:28.200Z,99.90
2019-05-12T11:11:41.730Z,99.90
2019-05-12T11:17:50.700Z,99.90
2019-05-12T11:23:55.280Z,99.90
2019-05-12T11:29:59.897Z,99.90
2019-05-12T11:36:04.546Z,99.90
2019-05-12T11:42:09.111Z,99.90
2019-05-12T11:48:14.445Z,99.90
2019-05-12T11:54:19.168Z,99.90
2019-05-12T12:00:25.469Z,99.90
2019-05-12T12:06:30.025Z,99.90
2019-05-12T12:12:34.722Z,99.90
2019-05-12T12:18:39.375Z,99.50
2019-05-12T12:24:44.000Z,98.30
2019-05-12T12:30:52.528Z,94.50
2019-05-12T12:36:54.862Z,95.90
2019-05-12T12:42:59.410Z,90.70
2019-05-12T12:49:06.378Z,85.10
2019-05-12T12:55:10.375Z,82.00
2019-05-12T13:01:21.935Z,71.10
2019-05-12T13:07:21.373Z,72.90
2019-05-12T13:13:25.940Z,74.30
2019-05-12T13:19:30.499Z,72.60
2019-05-12T13:25:38.898Z,71.70
2019-05-12T13:31:46.355Z,72.20
2019-05-12T13:37:50.268Z,78.50
2019-05-12T13:44:00.046Z,73.10
2019-05-12T13:50:04.078Z,65.40
2019-05-12T13:56:08.826Z,69.70
2019-05-12T14:02:21.851Z,66.90
2019-05-12T14:08:19.650Z,73.30
2019-05-12T14:14:24.288Z,70.10
2019-05-12T14:20:28.841Z,65.30
2019-05-12T14:26:33.533Z,61.90
2019-05-12T14:32:38.117Z,61.10
2019-05-12T14:38:42.664Z,64.50
2019-05-12T14:44:49.678Z,67.50
2019-05-12T14:50:53.677Z,66.60
2019-05-12T14:56:58.256Z,68.60
2019-05-12T15:03:05.463Z,71.10
2019-05-12T15:09:11.477Z,77.30
2019-05-12T15:15:20.456Z,83.10
2019-05-12T15:21:27.345Z,87.30
2019-05-12T15:27:41.212Z,87.50
2019-05-12T15:33:34.785Z,81.60
2019-05-12T15:39:39.331Z,80.80
2019-05-12T15:45:48.846Z,75.50
2019-05-12T15:51:54.158Z,76.20
2019-05-12T15:57:56.583Z,86.00
2019-05-12T16:04:03.516Z,89.50
2019-05-12T16:10:09.614Z,91.20
2019-05-12T16:16:14.412Z,92.20
2019-05-12T16:22:19.047Z,93.40
2019-05-12T16:28:26.594Z,93.90
2019-05-12T16:34:29.973Z,94.90
2019-05-12T16:40:39.275Z,97.50
2019-05-12T16:46:40.893Z,98.80
2019-05-12T16:52:45.718Z,99.90
2019-05-12T16:58:50.376Z,99.90
2019-05-12T17:04:54.944Z,99.90
2019-05-12T17:11:21.703Z,99.90
2019-05-12T17:17:05.971Z,98.70
2019-05-12T17:23:10.527Z,99.90
2019-05-12T17:29:15.185Z,99.90
2019-05-12T17:35:20.173Z,99.90
2019-05-12T17:41:26.171Z,99.90
2019-05-12T17:47:31.994Z,96.90
2019-05-12T17:53:37.821Z,87.90
2019-05-12T17:59:44.795Z,85.90
2019-05-12T18:05:49.824Z,78.00
2019-05-12T18:11:56.316Z,82.10
2019-05-12T18:18:00.770Z,79.70
2019-05-12T18:24:09.655Z,78.50
2019-05-12T18:30:16.633Z,78.90
2019-05-12T18:36:18.815Z,85.20
2019-05-12T18:42:24.598Z,87.80
2019-05-12T18:48:29.431Z,90.70
2019-05-12T18:54:34.556Z,93.30
2019-05-12T19:00:39.490Z,95.40
2019-05-12T19:06:44.225Z,97.90
2019-05-12T19:12:51.551Z,99.40
2019-05-12T19:18:55.698Z,99.90
2019-05-12T19:25:00.543Z,99.90
2019-05-12T19:31:09.856Z,99.90
2019-05-12T19:37:14.115Z,99.90
2019-05-12T19:43:17.815Z,99.90
2019-05-12T19:49:25.803Z,99.90
2019-05-12T19:55:28.799Z,99.90
2019-05-12T20:01:34.509Z,99.90
2019-05-12T20:07:39.220Z,99.90
2019-05-12T20:13:44.480Z,99.90
2019-05-12T20:19:49.205Z,99.90
2019-05-12T20:25:53.797Z,99.90
2019-05-12T20:31:58.390Z,99.90
2019-05-12T20:38:04.145Z,99.90
2019-05-12T20:44:09.813Z,99.90
2019-05-12T20:50:15.377Z,99.90
2019-05-12T20:56:21.961Z,99.90
2019-05-12T21:02:26.216Z,99.90
2019-05-12T21:08:30.764Z,99.90
2019-05-12T21:14:35.314Z,99.90
2019-05-12T21:20:39.928Z,99.90
2019-05-12T21:26:44.492Z,99.90
2019-05-12T21:32:56.527Z,99.90
2019-05-12T21:38:59.561Z,99.90
2019-05-12T21:45:04.270Z,99.90
2019-05-12T21:51:09.834Z,99.90
2019-05-12T21:57:14.140Z,99.90
2019-05-12T22:03:18.916Z,99.90
2019-05-12T22:09:24.071Z,99.90
2019-05-12T22:15:28.973Z,99.90
2019-05-12T22:21:35.755Z,99.90
2019-05-12T22:27:39.867Z,99.90
2019-05-12T22:33:49.740Z,99.90
2019-05-12T22:39:50.676Z,99.90
2019-05-12T22:45:55.309Z,99.90
2019-05-12T22:52:02.802Z,99.90
2019-05-12T22:58:10.880Z,99.90
2019-05-12T23:04:14.250Z,99.90
2019-05-12T23:10:19.060Z,99.90
2019-05-12T23:16:27.675Z,99.90
2019-05-12T23:22:35.224Z,99.90
2019-05-12T23:28:40.530Z,99.90
2019-05-12T23:34:45.079Z,99.90
2019-05-12T23:40:48.919Z,99.90
2019-05-12T23:46:53.895Z,99.90
2019-05-12T23:52:58.595Z,99.90
2019-05-12T23:59:04.496Z,99.90
